Time;durP1;ratioP1;P1;durP2;ratioP2;P2;SDS_P1;SDS_P2;PMS_P1;PMS_P2;Temp;Humidity;BMP_temperature;BMP_pressure;BME280_temperature;BME280_humidity;BME280_pressure;Samples;Min_cycle;Max_cycle;Signal;HPM_P1;HPM_P2
2022/04/21 00:01:31;;;;;;;1.97;1.70;;;20.80;40.30;21.70;100566.00;;;;5005786;28;20211;-56
2022/04/21 00:03:57;;;;;;;1.90;1.80;;;20.70;40.20;21.60;100555.00;;;;5005937;28;20248;-55
2022/04/21 00:06:22;;;;;;;1.70;1.60;;;20.70;40.20;21.60;100550.00;;;;5005760;28;20183;-54
2022/04/21 00:08:48;;;;;;;1.67;1.57;;;20.70;40.20;21.60;100554.00;;;;5005998;28;20679;-54
2022/04/21 00:11:14;;;;;;;1.67;1.57;;;20.70;40.30;21.60;100548.00;;;;5005657;28;20168;-53
2022/04/21 00:13:39;;;;;;;2.00;1.73;;;20.70;40.40;21.40;100557.00;;;;5005758;28;20214;-54
2022/04/21 00:16:05;;;;;;;1.60;1.50;;;20.70;40.40;21.60;100551.00;;;;5005678;28;20167;-55
2022/04/21 00:18:31;;;;;;;1.80;1.70;;;20.60;40.40;21.60;100555.00;;;;5005876;28;20199;-52
2022/04/21 00:20:59;;;;;;;1.70;1.60;;;20.60;40.50;21.60;100548.00;;;;5005929;28;20165;-54
2022/04/21 00:23:29;;;;;;;1.93;1.70;;;20.60;40.60;21.60;100549.00;;;;5005983;28;20263;-56
2022/04/21 00:25:56;;;;;;;1.83;1.73;;;20.60;40.50;21.60;100539.00;;;;5006123;28;20172;-54
2022/04/21 00:28:21;;;;;;;1.70;1.60;;;20.60;40.60;21.60;100539.00;;;;5005845;28;20175;-54
2022/04/21 00:30:47;;;;;;;1.70;1.60;;;20.60;40.70;21.60;100536.00;;;;5004656;28;20172;-53
2022/04/21 00:33:13;;;;;;;1.70;1.60;;;20.50;40.80;21.60;100540.00;;;;5006700;28;20262;-55
2022/04/21 00:35:38;;;;;;;1.73;1.63;;;20.50;40.80;21.50;100542.00;;;;5018583;28;20195;-54
2022/04/21 00:38:04;;;;;;;1.90;1.70;;;20.60;40.80;21.50;100534.00;;;;5013203;28;20196;-54
2022/04/21 00:40:30;;;;;;;1.90;1.70;;;20.60;40.80;21.50;100542.00;;;;5010808;28;20380;-55
2022/04/21 00:42:57;;;;;;;1.40;1.30;;;20.50;40.70;21.50;100538.00;;;;5009275;28;20188;-56
2022/04/21 00:45:23;;;;;;;1.70;1.60;;;20.50;40.80;21.40;100545.00;;;;5009318;28;20175;-55
2022/04/21 00:47:49;;;;;;;1.70;1.60;;;20.50;40.80;21.40;100533.00;;;;5009171;28;20180;-54
2022/04/21 00:50:25;;;;;;;1.80;1.70;;;20.50;40.80;21.40;100540.00;;;;5008365;28;20262;-54
2022/04/21 00:52:52;;;;;;;1.70;1.60;;;20.50;40.80;21.40;100539.00;;;;5009267;28;20561;-54
2022/04/21 00:55:19;;;;;;;2.40;1.50;;;20.50;40.80;21.40;100539.00;;;;5007858;28;20164;-54
2022/04/21 00:57:45;;;;;;;1.70;1.60;;;20.50;40.80;21.40;100533.00;;;;5007337;28;20203;-54
2022/04/21 01:00:12;;;;;;;1.63;1.53;;;20.50;40.80;21.40;100535.00;;;;5008919;28;20668;-55
2022/04/21 01:02:47;;;;;;;1.80;1.70;;;20.40;40.80;21.40;100523.00;;;;5008942;28;20192;-55
2022/04/21 01:05:30;;;;;;;1.80;1.70;;;20.40;40.80;21.40;100531.00;;;;5009123;28;20172;-54
2022/04/21 01:08:08;;;;;;;1.70;1.60;;;20.40;40.90;21.40;100528.00;;;;5007700;28;20178;-56
2022/04/21 01:10:36;;;;;;;1.73;1.63;;;20.40;40.90;21.30;100524.00;;;;5008557;28;20578;-55
2022/04/21 01:13:07;;;;;;;1.77;1.67;;;20.40;40.80;21.30;100536.00;;;;5008720;28;20239;-53
2022/04/21 01:15:32;;;;;;;1.70;1.60;;;20.40;40.80;21.30;100539.00;;;;5008497;28;20180;-53
2022/04/21 01:17:58;;;;;;;1.30;1.30;;;20.40;40.80;21.30;100525.00;;;;5008266;28;20195;-56
2022/04/21 01:20:25;;;;;;;1.90;1.80;;;20.40;40.80;21.30;100530.00;;;;5008342;28;20200;-54
2022/04/21 01:22:51;;;;;;;1.67;1.57;;;20.30;40.80;21.30;100521.00;;;;5008354;28;20187;-56
2022/04/21 01:25:17;;;;;;;1.80;1.70;;;20.30;40.80;21.30;100520.00;;;;5008535;28;20171;-54
2022/04/21 01:27:43;;;;;;;1.57;1.47;;;20.30;40.80;21.30;100516.00;;;;5008198;28;20177;-54
2022/04/21 01:30:11;;;;;;;1.70;1.60;;;20.30;40.90;21.20;100512.00;;;;5008351;28;20218;-55
2022/04/21 01:32:38;;;;;;;1.60;1.50;;;20.30;41.00;21.20;100516.00;;;;5008193;28;20187;-54
2022/04/21 01:35:07;;;;;;;1.83;1.73;;;20.20;40.90;21.20;100501.00;;;;5007045;28;20682;-54
2022/04/21 01:43:02;;;;;;;1.67;1.57;;;20.20;41.00;21.20;100497.00;;;;5007965;28;20698;-55
2022/04/21 01:45:27;;;;;;;1.60;1.50;;;20.20;41.00;21.20;100500.00;;;;5007451;28;20163;-55
2022/04/21 01:47:56;;;;;;;1.80;1.70;;;20.20;40.90;21.20;100496.00;;;;5007922;28;20165;-53
2022/04/21 01:50:25;;;;;;;1.70;1.60;;;20.20;40.90;21.20;100486.00;;;;5012808;28;20179;-56
2022/04/21 01:52:51;;;;;;;1.70;1.60;;;20.20;40.90;21.10;100491.00;;;;5009015;28;20194;-55
2022/04/21 01:55:16;;;;;;;1.80;1.70;;;20.20;40.80;21.10;100490.00;;;;5016335;28;20168;-56
2022/04/21 01:57:42;;;;;;;1.60;1.50;;;20.10;40.70;21.10;100489.00;;;;5010628;28;20222;-54
2022/04/21 02:00:09;;;;;;;1.70;1.60;;;20.10;40.80;21.10;100487.00;;;;5007792;28;20541;-55
2022/04/21 02:02:34;;;;;;;1.80;1.70;;;20.10;40.80;21.00;100489.00;;;;5007799;28;20729;-52
2022/04/21 02:05:01;;;;;;;1.50;1.40;;;20.10;40.90;21.10;100486.00;;;;5007542;28;20164;-55
2022/04/21 02:07:27;;;;;;;1.50;1.40;;;20.10;40.90;21.00;100484.00;;;;5007422;28;20184;-53
2022/04/21 02:09:54;;;;;;;1.80;1.70;;;20.10;40.90;21.00;100481.00;;;;5006105;28;20199;-54
2022/04/21 02:12:21;;;;;;;1.70;1.60;;;20.10;40.90;21.00;100479.00;;;;5006554;28;20277;-55
2022/04/21 02:14:48;;;;;;;1.40;1.30;;;20.10;40.90;21.00;100469.00;;;;5007779;28;20183;-55
2022/04/21 02:17:14;;;;;;;1.80;1.70;;;20.00;40.80;21.00;100472.00;;;;5007492;28;20200;-53
2022/04/21 02:19:40;;;;;;;1.60;1.50;;;20.00;40.90;21.00;100478.00;;;;5007126;28;20793;-54
2022/04/21 02:22:06;;;;;;;2.13;1.60;;;20.00;41.00;21.00;100476.00;;;;5007421;28;20188;-54
2022/04/21 02:24:31;;;;;;;1.80;1.70;;;20.00;41.00;21.00;100477.00;;;;5009063;28;20198;-55
2022/04/21 02:26:57;;;;;;;1.60;1.50;;;20.00;41.00;21.00;100475.00;;;;5008151;28;20176;-54
2022/04/21 02:29:23;;;;;;;1.30;1.30;;;20.00;40.90;20.90;100476.00;;;;5008376;28;20175;-55
2022/04/21 02:31:49;;;;;;;1.40;1.40;;;20.00;40.90;20.90;100465.00;;;;5006929;28;20561;-55
2022/04/21 02:34:15;;;;;;;1.90;1.70;;;19.90;40.90;20.90;100474.00;;;;5008697;28;20171;-55
2022/04/21 02:36:41;;;;;;;1.50;1.40;;;19.90;40.90;20.90;100468.00;;;;5008796;28;20219;-55
2022/04/21 02:39:07;;;;;;;1.60;1.50;;;20.00;40.90;20.90;100472.00;;;;5010166;28;20167;-55
2022/04/21 02:41:32;;;;;;;1.50;1.40;;;19.90;40.80;20.80;100467.00;;;;5026009;28;20207;-54
2022/04/21 02:43:59;;;;;;;1.43;1.40;;;20.00;40.90;20.80;100460.00;;;;5027054;28;20514;-54
2022/04/21 02:46:28;;;;;;;1.60;1.50;;;19.90;40.80;20.80;100425.00;;;;5026165;28;20258;-55
2022/04/21 02:48:55;;;;;;;1.60;1.50;;;19.90;40.80;20.70;100461.00;;;;5026370;28;20175;-53
2022/04/21 02:51:21;;;;;;;1.60;1.50;;;19.90;40.90;20.70;100463.00;;;;5026258;28;20589;-55
2022/04/21 02:59:15;;;;;;;1.60;1.50;;;19.80;40.80;20.70;100459.00;;;;5036057;28;20695;-56
2022/04/21 03:01:41;;;;;;;1.63;1.53;;;19.80;40.90;20.60;100455.00;;;;5009347;28;20202;-56
2022/04/21 03:04:06;;;;;;;1.70;1.60;;;19.80;41.00;20.60;100463.00;;;;5026432;28;20171;-53
2022/04/21 03:06:32;;;;;;;1.47;1.40;;;19.80;41.00;20.60;100455.00;;;;5029499;28;20175;-55
2022/04/21 03:08:58;;;;;;;1.57;1.47;;;19.70;40.90;20.60;100462.00;;;;5026261;28;20547;-54
2022/04/21 03:11:23;;;;;;;1.77;1.67;;;19.70;40.90;20.60;100456.00;;;;5025623;28;20191;-55
2022/04/21 03:13:49;;;;;;;1.37;1.27;;;19.80;40.90;20.60;100456.00;;;;5033409;28;20232;-54
2022/04/21 03:16:15;;;;;;;1.80;1.70;;;19.70;40.90;20.60;100462.00;;;;5031031;28;20170;-55
2022/04/21 03:18:41;;;;;;;1.30;1.30;;;19.80;41.00;20.60;100461.00;;;;5026129;28;20920;-54
2022/04/21 03:26:34;;;;;;;1.60;1.50;;;19.60;41.00;20.50;100453.00;;;;5025609;28;20198;-55
2022/04/21 03:29:00;;;;;;;1.77;1.67;;;19.70;41.00;20.50;100460.00;;;;5025678;28;20707;-55
2022/04/21 03:31:26;;;;;;;2.17;1.43;;;19.70;41.10;20.50;100464.00;;;;5025590;28;20526;-55
2022/04/21 03:33:51;;;;;;;4.20;1.70;;;19.60;41.00;20.50;100465.00;;;;5025188;28;20170;-55
2022/04/21 03:36:17;;;;;;;3.87;1.90;;;19.60;41.20;20.40;100464.00;;;;5025522;28;20171;-54
2022/04/21 03:38:43;;;;;;;1.93;1.67;;;19.60;41.60;20.40;100472.00;;;;5025197;28;20820;-54
2022/04/21 03:41:09;;;;;;;4.30;1.73;;;19.60;41.30;20.40;100400.00;;;;5025723;28;20217;-54
2022/04/21 03:43:35;;;;;;;2.57;1.80;;;19.60;41.20;20.40;100463.00;;;;5025552;28;20254;-54
2022/04/21 03:46:00;;;;;;;4.00;2.10;;;19.60;41.00;20.40;100477.00;;;;5025614;28;20177;-55
2022/04/21 03:48:26;;;;;;;2.13;1.50;;;19.50;41.00;20.40;100464.00;;;;5024203;28;20548;-55
2022/04/21 03:50:52;;;;;;;4.93;1.87;;;19.60;41.40;20.40;100468.00;;;;5025670;28;20179;-57
2022/04/21 03:53:18;;;;;;;2.60;1.70;;;19.50;41.20;20.40;100464.00;;;;5025106;28;20274;-54
2022/04/21 03:55:43;;;;;;;2.70;1.63;;;19.50;41.10;20.40;100473.00;;;;5025273;28;20163;-55
2022/04/21 03:58:09;;;;;;;5.73;1.80;;;19.50;41.20;20.30;100464.00;;;;5025578;28;20199;-53
2022/04/21 04:00:35;;;;;;;4.03;1.80;;;19.50;41.30;20.30;100468.00;;;;5025382;28;20174;-56
2022/04/21 04:03:00;;;;;;;2.70;1.87;;;19.40;41.10;20.30;100463.00;;;;5025027;28;20686;-54
2022/04/21 04:05:26;;;;;;;2.47;1.60;;;19.40;41.10;20.30;100468.00;;;;5025425;28;20167;-57
2022/04/21 04:10:54;;;;;;;2.57;1.60;;;19.40;41.10;20.30;100459.00;;;;5029183;28;20673;-54
2022/04/21 04:13:23;;;;;;;1.83;1.70;;;19.40;41.10;20.30;100468.00;;;;5029220;28;20333;-55
2022/04/21 04:15:49;;;;;;;1.60;1.50;;;19.50;41.20;20.30;100470.00;;;;5029468;28;20850;-55
2022/04/21 04:18:16;;;;;;;2.23;1.60;;;19.40;41.00;20.20;100465.00;;;;5029588;28;20671;-55
2022/04/21 04:20:42;;;;;;;1.77;1.67;;;19.30;41.00;20.20;100454.00;;;;5029412;28;20171;-55
2022/04/21 04:23:08;;;;;;;2.10;1.70;;;19.30;41.00;20.20;100466.00;;;;5028782;28;20339;-54
2022/04/21 04:25:33;;;;;;;1.70;1.60;;;19.30;41.00;20.20;100467.00;;;;5044399;28;20832;-55
2022/04/21 04:27:59;;;;;;;1.90;1.63;;;19.30;41.00;20.20;100464.00;;;;5029101;28;20240;-54
2022/04/21 04:30:25;;;;;;;2.30;1.73;;;19.30;40.90;20.20;100461.00;;;;5030322;28;20174;-55
2022/04/21 04:32:50;;;;;;;2.30;1.67;;;19.30;41.00;20.20;100460.00;;;;5035024;28;20187;-54
2022/04/21 04:35:16;;;;;;;2.43;1.53;;;19.30;41.00;20.20;100465.00;;;;5033456;28;20181;-55
2022/04/21 04:37:42;;;;;;;3.73;1.60;;;19.20;41.00;20.20;100467.00;;;;5028921;28;20729;-54
2022/04/21 04:40:08;;;;;;;3.97;2.00;;;19.20;41.00;20.20;100464.00;;;;5028819;28;20171;-55
2022/04/21 04:42:34;;;;;;;2.17;1.67;;;19.20;41.00;20.10;100463.00;;;;5028648;28;20191;-54
2022/04/21 04:47:44;;;;;;;6.50;2.20;;;19.20;41.20;20.10;100471.00;;;;5028284;28;20174;-56
2022/04/21 04:50:09;;;;;;;2.83;1.80;;;19.20;41.30;20.10;100461.00;;;;5028398;28;20187;-54
2022/04/21 04:52:35;;;;;;;3.57;1.80;;;19.10;41.20;20.10;100476.00;;;;5028489;28;20213;-54
2022/04/21 04:55:01;;;;;;;2.23;1.83;;;19.10;41.20;20.00;100457.00;;;;5028732;28;20211;-53
2022/04/21 04:57:27;;;;;;;3.03;1.87;;;19.20;41.20;20.00;100460.00;;;;5043760;28;20206;-54
2022/04/21 04:59:53;;;;;;;3.47;1.97;;;19.20;41.20;20.00;100458.00;;;;5028523;28;20301;-54
2022/04/21 05:02:20;;;;;;;4.03;2.07;;;19.10;41.40;20.00;100452.00;;;;5027909;28;20592;-56
2022/04/21 05:04:47;;;;;;;3.13;1.90;;;19.10;41.40;20.00;100461.00;;;;5028157;28;20305;-54
2022/04/21 05:07:13;;;;;;;7.80;1.80;;;19.10;41.40;20.00;100467.00;;;;5027159;28;20182;-55
2022/04/21 05:09:39;;;;;;;3.90;1.87;;;19.10;41.50;20.00;100466.00;;;;5030953;28;20174;-57
2022/04/21 05:12:05;;;;;;;4.83;2.03;;;19.10;41.50;20.00;100456.00;;;;5027753;28;20194;-56
2022/04/21 05:14:31;;;;;;;7.50;1.90;;;19.00;41.50;20.00;100457.00;;;;5028198;28;20174;-54
2022/04/21 05:16:56;;;;;;;3.37;2.10;;;19.10;41.50;19.90;100459.00;;;;5027693;28;20256;-53
2022/04/21 05:19:22;;;;;;;3.13;1.70;;;19.00;41.30;19.90;100445.00;;;;5026623;28;20640;-55
2022/04/21 05:21:49;;;;;;;2.60;1.80;;;19.10;41.40;19.90;100458.00;;;;5028030;28;20285;-54
2022/04/21 05:24:15;;;;;;;3.73;1.60;;;19.10;41.40;19.90;100457.00;;;;5027405;28;20713;-56
2022/04/21 05:26:41;;;;;;;4.97;1.90;;;19.00;41.40;19.80;100461.00;;;;5027905;28;20175;-54
2022/04/21 05:32:02;;;;;;;2.90;1.73;;;19.00;41.30;19.80;100461.00;;;;5028459;28;20856;-53
2022/04/21 05:34:30;;;;;;;2.43;1.90;;;19.00;41.30;19.80;100467.00;;;;5030614;28;20248;-54
2022/04/21 05:36:56;;;;;;;1.83;1.60;;;19.00;41.30;19.60;100456.00;;;;5027396;28;20211;-54
2022/04/21 05:39:23;;;;;;;1.70;1.60;;;19.00;41.40;19.80;100455.00;;;;5028141;28;20529;-54
2022/04/21 05:41:48;;;;;;;2.30;1.80;;;18.90;41.20;19.80;100455.00;;;;5028594;28;20190;-54
2022/04/21 05:44:14;;;;;;;2.73;1.67;;;19.00;41.40;19.70;100445.00;;;;5015362;28;20182;-56
2022/04/21 05:46:41;;;;;;;2.20;1.80;;;19.00;41.30;19.70;100445.00;;;;5046495;28;20163;-57
2022/04/21 05:49:07;;;;;;;2.10;1.80;;;18.90;41.20;19.70;100446.00;;;;5046393;28;20191;-56
2022/04/21 05:51:33;;;;;;;3.60;1.80;;;18.90;41.30;19.70;100444.00;;;;5029654;28;20223;-56
2022/04/21 05:53:59;;;;;;;3.13;1.90;;;18.90;41.30;19.70;100446.00;;;;5027903;28;20265;-54
2022/04/21 05:56:25;;;;;;;2.00;1.80;;;18.80;41.30;19.60;100445.00;;;;5027455;28;20163;-56
2022/04/21 05:58:51;;;;;;;3.63;1.70;;;18.80;41.30;19.60;100444.00;;;;5027361;28;20784;-55
2022/04/21 06:01:17;;;;;;;1.77;1.63;;;18.90;41.40;19.50;100451.00;;;;5027281;28;20268;-54
2022/04/21 06:03:43;;;;;;;1.80;1.60;;;18.80;41.30;19.60;100449.00;;;;5027169;28;20241;-55
2022/04/21 06:06:09;;;;;;;1.93;1.73;;;18.80;41.30;19.60;100441.00;;;;5027350;28;20632;-54
2022/04/21 06:08:38;;;;;;;2.10;1.73;;;18.80;41.40;19.60;100438.00;;;;5027037;28;20197;-55
2022/04/21 06:11:04;;;;;;;2.20;1.80;;;18.80;41.40;19.50;100441.00;;;;5026726;28;20225;-55
2022/04/21 06:13:30;;;;;;;1.93;1.70;;;18.80;41.40;19.50;100431.00;;;;5026652;28;20202;-56
2022/04/21 06:15:56;;;;;;;2.33;1.80;;;18.80;41.50;19.50;100442.00;;;;5025564;28;20564;-55
2022/04/21 06:18:23;;;;;;;2.60;1.80;;;18.80;41.60;19.50;100436.00;;;;5026545;28;20202;-56
2022/04/21 06:20:53;;;;;;;1.80;1.70;;;18.70;41.50;19.50;100404.00;;;;5027065;28;20166;-55
2022/04/21 06:23:19;;;;;;;2.00;1.80;;;18.70;41.50;19.50;100444.00;;;;5026670;28;20182;-54
2022/04/21 06:25:44;;;;;;;1.90;1.80;;;18.70;41.70;19.50;100441.00;;;;5026965;28;20816;-54
2022/04/21 06:28:11;;;;;;;2.03;1.70;;;18.70;41.70;19.50;100437.00;;;;5026703;28;20192;-58
2022/04/21 06:30:36;;;;;;;2.03;1.83;;;18.70;41.70;19.50;100441.00;;;;5026255;28;20261;-55
2022/04/21 06:33:02;;;;;;;1.83;1.70;;;18.70;41.70;19.50;100434.00;;;;5026100;28;20260;-57
2022/04/21 06:35:28;;;;;;;1.63;1.53;;;18.70;41.70;19.50;100432.00;;;;5026710;28;20266;-55
2022/04/21 06:37:54;;;;;;;1.87;1.77;;;18.70;41.70;19.50;100445.00;;;;5027452;28;20284;-56
2022/04/21 06:40:20;;;;;;;1.70;1.60;;;18.60;41.70;19.50;100435.00;;;;5028021;28;20678;-57
2022/04/21 06:42:46;;;;;;;1.70;1.60;;;18.60;41.70;19.50;100431.00;;;;5027274;28;20273;-54
2022/04/21 06:48:03;;;;;;;1.90;1.70;;;18.60;41.70;19.50;100438.00;;;;5025484;28;20166;-55
2022/04/21 06:50:33;;;;;;;1.60;1.50;;;18.60;41.80;19.50;100429.00;;;;5027134;28;20158;-55
2022/04/21 06:53:00;;;;;;;1.80;1.70;;;18.60;41.80;19.50;100444.00;;;;5026582;28;20672;-55
2022/04/21 06:55:26;;;;;;;1.80;1.70;;;18.60;41.80;19.50;100434.00;;;;5026692;28;20659;-55
2022/04/21 06:57:52;;;;;;;1.80;1.70;;;18.50;41.80;19.40;100434.00;;;;5026001;28;20201;-56
2022/04/21 07:00:18;;;;;;;1.83;1.70;;;18.50;41.90;19.40;100447.00;;;;5025761;28;20173;-54
2022/04/21 07:02:45;;;;;;;10.20;1.70;;;18.50;41.90;19.40;100438.00;;;;5025932;28;20203;-55
2022/04/21 07:05:14;;;;;;;3.27;1.80;;;18.60;42.50;19.40;100436.00;;;;5026171;28;20175;-55
2022/04/21 07:07:40;;;;;;;2.93;1.83;;;18.50;42.30;19.40;100439.00;;;;5025662;28;20181;-55
2022/04/21 07:10:07;;;;;;;1.90;1.70;;;18.50;42.20;19.40;100439.00;;;;5026144;28;20185;-55
2022/04/21 07:12:33;;;;;;;4.13;2.00;;;18.60;42.30;19.40;100432.00;;;;5008064;28;20251;-56
2022/04/21 07:15:00;;;;;;;5.67;1.97;;;18.60;42.40;19.40;100435.00;;;;5025605;28;20243;-54
2022/04/21 07:17:26;;;;;;;3.67;2.00;;;18.50;42.30;19.40;100440.00;;;;5026845;28;20283;-55
2022/04/21 07:19:52;;;;;;;3.97;1.87;;;18.60;42.40;19.40;100433.00;;;;5030678;28;20273;-54
2022/04/21 07:22:21;;;;;;;2.27;1.77;;;18.50;42.40;19.40;100434.00;;;;5025552;28;20200;-56
2022/04/21 07:24:47;;;;;;;3.00;1.87;;;18.50;42.50;19.30;100440.00;;;;5024928;28;20535;-57
2022/04/21 07:27:13;;;;;;;2.90;1.97;;;18.50;42.50;19.40;100432.00;;;;5025425;28;20717;-53
2022/04/21 07:29:39;;;;;;;1.77;1.67;;;18.50;42.60;19.40;100435.00;;;;5025905;28;20231;-55
2022/04/21 07:32:05;;;;;;;3.80;1.97;;;18.50;42.60;19.40;100437.00;;;;5026095;28;20202;-56
2022/04/21 07:34:31;;;;;;;3.80;1.67;;;18.50;42.60;19.40;100434.00;;;;4917424;28;20171;-55
2022/04/21 07:36:57;;;;;;;2.00;1.80;;;18.50;42.60;19.40;100440.00;;;;5025613;28;20299;-55
2022/04/21 07:39:22;;;;;;;2.13;1.70;;;18.50;42.60;19.40;100429.00;;;;5025611;28;20194;-56
2022/04/21 07:41:48;;;;;;;2.30;1.60;;;18.50;42.60;19.40;100432.00;;;;5024426;28;20201;-55
2022/04/21 07:44:14;;;;;;;2.90;1.90;;;18.50;42.70;19.40;100433.00;;;;5025449;28;20163;-57
2022/04/21 07:46:39;;;;;;;1.70;1.60;;;18.50;42.70;19.40;100434.00;;;;5025429;28;20874;-55
2022/04/21 07:51:49;;;;;;;2.53;1.90;;;18.50;42.80;19.40;100435.00;;;;5025593;28;20281;-55
2022/04/21 07:54:15;;;;;;;1.83;1.70;;;18.50;42.80;19.30;100423.00;;;;5025112;28;20246;-54
2022/04/21 07:56:40;;;;;;;2.67;1.90;;;18.50;42.80;19.40;100425.00;;;;5025367;28;20294;-56
2022/04/21 07:59:06;;;;;;;3.93;1.80;;;18.50;42.90;19.40;100411.00;;;;5023895;28;20174;-58
2022/04/21 08:01:32;;;;;;;5.03;1.97;;;18.40;43.00;19.30;100297.00;;;;5024307;28;20208;-54
2022/04/21 08:04:04;;;;;;;4.40;1.80;;;18.40;43.80;19.30;100422.00;;;;5024746;28;20170;-57
2022/04/21 08:06:29;;;;;;;4.07;2.10;;;18.40;43.50;19.30;100416.00;;;;5024976;28;20210;-54
2022/04/21 08:08:55;;;;;;;2.53;1.80;;;18.40;43.50;19.30;100423.00;;;;5023460;28;21055;-55
2022/04/21 08:11:21;;;;;;;5.43;1.80;;;18.50;43.60;19.30;100421.00;;;;5025096;28;20613;-56
2022/04/21 08:13:47;;;;;;;3.33;1.60;;;18.50;43.70;19.30;100426.00;;;;5025242;28;20484;-56
2022/04/21 08:16:13;;;;;;;2.67;1.80;;;18.40;43.60;19.30;100416.00;;;;5023552;28;20233;-54
2022/04/21 08:18:39;;;;;;;3.27;1.70;;;18.50;43.70;19.40;100425.00;;;;5025487;28;20395;-55
2022/04/21 08:21:06;;;;;;;1.90;1.70;;;18.50;43.70;19.40;100423.00;;;;5024951;28;20214;-54
2022/04/21 08:23:36;;;;;;;2.83;1.60;;;18.40;43.70;19.40;100431.00;;;;5024098;28;20166;-58
2022/04/21 08:34:14;;;;;;;3.20;1.70;;;18.40;43.70;19.30;100429.00;;;;4863047;28;20203;-56
2022/04/21 08:36:40;;;;;;;1.90;1.80;;;18.50;43.80;19.30;100424.00;;;;5033876;28;20643;-55
2022/04/21 08:39:06;;;;;;;1.90;1.80;;;18.40;43.70;19.30;100418.00;;;;5031219;28;20601;-54
2022/04/21 08:41:32;;;;;;;2.00;1.77;;;18.40;43.70;19.40;100410.00;;;;5027383;28;20777;-54
2022/04/21 08:43:57;;;;;;;3.13;1.80;;;18.40;43.70;19.40;100428.00;;;;5010086;28;20158;-55
2022/04/21 08:46:25;;;;;;;2.30;1.70;;;18.50;43.70;19.30;100420.00;;;;5009639;28;20635;-54
2022/04/21 08:48:51;;;;;;;2.87;1.83;;;18.40;43.50;19.30;100408.00;;;;5027607;28;20182;-55
2022/04/21 08:51:20;;;;;;;2.27;1.70;;;18.40;43.60;19.30;100415.00;;;;5027877;28;20225;-53
2022/04/21 08:53:46;;;;;;;2.87;1.70;;;18.40;43.60;19.30;100411.00;;;;5028808;28;20178;-55
2022/04/21 08:56:12;;;;;;;1.97;1.70;;;18.40;43.70;19.30;100405.00;;;;5031295;28;20605;-53
2022/04/21 08:58:38;;;;;;;2.43;1.80;;;18.40;43.70;19.30;100399.00;;;;5030861;28;20205;-52
2022/04/21 09:01:03;;;;;;;2.17;1.80;;;18.50;43.80;19.30;100394.00;;;;5029336;28;20895;-54
2022/04/21 09:03:33;;;;;;;2.13;1.30;;;18.40;43.60;19.30;100403.00;;;;5031144;28;20209;-54
2022/04/21 09:05:58;;;;;;;2.80;1.83;;;18.40;43.70;19.30;100393.00;;;;5033320;28;20171;-55
2022/04/21 09:08:26;;;;;;;2.23;1.73;;;18.40;43.70;19.40;100394.00;;;;5031408;28;20173;-56
2022/04/21 09:11:07;;;;;;;1.90;1.70;;;18.50;43.70;19.40;100384.00;;;;5030813;28;20168;-56
2022/04/21 09:13:39;;;;;;;1.70;1.60;;;18.50;43.70;19.40;100382.00;;;;5029510;28;20224;-54
2022/04/21 09:16:07;;;;;;;1.60;1.50;;;18.50;43.70;19.40;100379.00;;;;5030815;28;20594;-53
2022/04/21 09:18:43;;;;;;;2.50;1.50;;;18.50;43.70;19.40;100385.00;;;;5030590;28;20254;-56
2022/04/21 09:21:16;;;;;;;1.90;1.70;;;18.50;43.90;19.40;100386.00;;;;5033166;28;20654;-54
2022/04/21 09:23:46;;;;;;;1.70;1.60;;;18.40;43.90;19.30;100385.00;;;;5013282;28;20248;-54
2022/04/21 09:26:15;;;;;;;2.80;1.77;;;18.50;44.10;19.30;100372.00;;;;5030673;28;20238;-54
2022/04/21 09:28:40;;;;;;;1.60;1.50;;;18.40;44.10;19.30;100363.00;;;;5031117;28;20180;-54
2022/04/21 09:31:08;;;;;;;2.17;1.77;;;18.50;44.20;19.30;100361.00;;;;5030828;28;20176;-54
2022/04/21 09:33:40;;;;;;;1.97;1.70;;;18.50;44.20;19.30;100360.00;;;;4884784;28;20267;-55
2022/04/21 09:36:08;;;;;;;1.67;1.57;;;18.50;44.20;19.30;100362.00;;;;5012755;28;20271;-58
2022/04/21 09:38:34;;;;;;;1.90;1.70;;;18.50;44.40;19.30;100356.00;;;;5013128;28;20196;-54
2022/04/21 09:41:06;;;;;;;1.70;1.60;;;18.50;44.40;19.30;100352.00;;;;5011108;28;20636;-53
2022/04/21 09:43:33;;;;;;;1.60;1.50;;;18.50;44.50;19.30;100356.00;;;;5009655;28;20182;-54
2022/04/21 09:46:21;;;;;;;1.90;1.50;;;18.50;44.60;19.30;100351.00;;;;5010450;28;20173;-53
2022/04/21 09:48:54;;;;;;;1.70;1.60;;;18.50;44.60;19.30;100355.00;;;;5010300;28;20159;-54
2022/04/21 09:51:24;;;;;;;1.90;1.80;;;18.50;44.60;19.30;100360.00;;;;5009338;28;20236;-55
2022/04/21 09:53:59;;;;;;;1.70;1.60;;;18.60;44.70;19.30;100358.00;;;;5010503;28;20190;-54
2022/04/21 09:56:44;;;;;;;4.00;1.90;;;18.60;44.60;19.40;100351.00;;;;5010238;28;20157;-55
2022/04/21 09:59:11;;;;;;;2.57;1.67;;;18.60;45.10;19.30;100350.00;;;;5010263;28;20673;-57
2022/04/21 10:01:42;;;;;;;2.07;1.73;;;18.60;45.70;19.40;100337.00;;;;5009637;28;20200;-54
2022/04/21 10:04:09;;;;;;;1.67;1.57;;;18.70;45.60;19.40;100331.00;;;;5010318;28;20184;-54
2022/04/21 10:06:42;;;;;;;3.23;2.00;;;18.70;45.40;19.40;100336.00;;;;5009132;28;20255;-54
2022/04/21 10:09:08;;;;;;;6.93;2.10;;;18.70;45.50;19.40;100331.00;;;;5010563;28;20542;-54
2022/04/21 10:11:37;;;;;;;3.70;1.80;;;18.70;45.70;19.40;100337.00;;;;5010049;28;20201;-57
2022/04/21 10:14:06;;;;;;;4.87;2.10;;;18.70;45.70;19.40;100335.00;;;;5009880;28;20170;-54
2022/04/21 10:16:32;;;;;;;7.33;2.10;;;18.70;45.70;19.40;100330.00;;;;4992843;28;20194;-56
2022/04/21 10:18:59;;;;;;;9.87;2.17;;;18.70;45.50;19.40;100324.00;;;;5011254;28;20239;-54
2022/04/21 10:21:36;;;;;;;5.50;2.07;;;18.70;45.40;19.40;100318.00;;;;5010618;28;20202;-55
2022/04/21 10:24:02;;;;;;;7.37;2.00;;;18.70;45.30;19.40;100334.00;;;;5028301;28;20238;-52
2022/04/21 10:26:41;;;;;;;4.23;1.83;;;18.70;45.30;19.50;100319.00;;;;5028595;28;20679;-53
2022/04/21 10:29:14;;;;;;;3.00;1.77;;;18.70;45.20;19.50;100322.00;;;;5019451;28;20175;-53
2022/04/21 10:32:03;;;;;;;3.70;1.80;;;18.70;45.00;19.50;100331.00;;;;5009707;28;20208;-53
2022/04/21 10:34:40;;;;;;;3.10;2.00;;;18.70;45.00;19.50;100321.00;;;;4936770;28;20178;-55
2022/04/21 10:37:31;;;;;;;2.80;2.00;;;18.70;44.70;19.60;100322.00;;;;5027560;28;20275;-52
2022/04/21 10:40:10;;;;;;;2.20;1.80;;;18.70;45.20;19.60;100313.00;;;;5028053;28;20707;-55
2022/04/21 10:42:57;;;;;;;8.57;2.40;;;18.80;45.40;19.60;100302.00;;;;5028180;28;20199;-54
2022/04/21 10:45:32;;;;;;;2.00;1.80;;;18.80;45.10;19.60;100306.00;;;;5029333;28;20165;-53
2022/04/21 10:48:09;;;;;;;5.70;1.90;;;18.80;45.30;19.60;100306.00;;;;5028953;28;20163;-54
2022/04/21 10:50:35;;;;;;;4.60;1.77;;;18.90;45.10;19.60;100312.00;;;;5029144;28;20165;-53
2022/04/21 10:58:35;;;;;;;9.40;2.47;;;18.90;45.50;19.60;100315.00;;;;5029721;28;20199;-53
2022/04/21 11:01:17;;;;;;;7.07;2.50;;;18.90;45.80;19.60;100309.00;;;;5030397;28;20290;-54
2022/04/21 11:03:45;;;;;;;7.87;2.40;;;18.90;45.60;19.70;100311.00;;;;5031355;28;20198;-54
2022/04/21 11:06:15;;;;;;;10.33;2.70;;;18.90;45.80;19.70;100308.00;;;;5030337;28;20218;-54
2022/04/21 11:08:41;;;;;;;5.07;2.27;;;18.90;45.80;19.70;100308.00;;;;5030076;28;20182;-54
2022/04/21 11:11:07;;;;;;;5.17;2.33;;;19.00;45.90;19.70;100309.00;;;;5028315;28;20170;-54
2022/04/21 11:13:50;;;;;;;3.23;2.20;;;19.00;45.60;19.70;100297.00;;;;5011208;28;20177;-53
2022/04/21 11:16:47;;;;;;;9.73;2.40;;;19.00;45.60;19.80;100299.00;;;;5028819;28;20177;-57
2022/04/21 11:19:33;;;;;;;3.97;2.30;;;19.10;45.70;19.80;100288.00;;;;5029252;28;20159;-54
2022/04/21 11:22:09;;;;;;;4.23;2.20;;;19.10;45.70;19.80;100288.00;;;;5028670;28;20212;-55
2022/04/21 11:25:01;;;;;;;5.20;2.40;;;19.10;45.80;19.90;100294.00;;;;5028439;28;20174;-53
2022/04/21 11:27:26;;;;;;;2.97;2.23;;;19.20;45.90;19.90;100290.00;;;;5028569;28;20160;-54
2022/04/21 11:29:58;;;;;;;4.27;2.10;;;19.20;45.90;19.90;100296.00;;;;5028580;28;20232;-55
2022/04/21 11:32:23;;;;;;;3.80;2.10;;;19.20;45.90;19.90;100291.00;;;;5027327;28;20195;-54
2022/04/21 11:35:12;;;;;;;4.57;2.10;;;19.30;46.00;19.90;100284.00;;;;5028504;28;20491;-52